Time;durP1;ratioP1;P1;durP2;ratioP2;P2;SDS_P1;SDS_P2;PMS_P1;PMS_P2;Temp;Humidity;BMP_temperature;BMP_pressure;BME280_temperature;BME280_humidity;BME280_pressure;Samples;Min_cycle;Max_cycle;Signal;HPM_P1;HPM_P2
2023/08/26 00:00:07;;;;;;;9.40;6.10;;;;;;;18.57;92.59;100599.28;4957093;28;20051;-71
2023/08/26 00:02:36;;;;;;;7.07;5.65;;;;;;;18.55;92.84;100596.06;4958898;28;20027;-73
2023/08/26 00:05:02;;;;;;;6.88;5.20;;;;;;;18.51;92.74;100592.44;4952730;28;20043;-71
2023/08/26 00:07:28;;;;;;;6.72;5.38;;;;;;;18.49;92.66;100608.22;4934692;28;20137;-72
2023/08/26 00:09:54;;;;;;;6.30;5.68;;;;;;;18.47;92.87;100605.06;4958320;28;20045;-73
2023/08/26 00:12:22;;;;;;;11.18;6.72;;;;;;;18.47;93.54;100602.34;4941676;28;20197;-73
2023/08/26 00:14:48;;;;;;;8.40;4.93;;;;;;;18.45;93.22;100596.44;4925795;29;20031;-72
2023/08/26 00:17:13;;;;;;;6.75;5.68;;;;;;;18.41;92.78;100604.44;4958776;28;20681;-74
2023/08/26 00:19:39;;;;;;;8.93;5.45;;;;;;;18.35;92.48;100597.59;4945738;28;20046;-72
2023/08/26 00:22:05;;;;;;;8.82;7.20;;;;;;;18.31;92.93;100590.47;4951939;28;20118;-74
2023/08/26 00:24:32;;;;;;;9.15;6.32;;;;;;;18.25;92.64;100593.34;4956060;28;20045;-73
2023/08/26 00:26:58;;;;;;;7.15;5.78;;;;;;;18.19;92.98;100583.78;4940798;28;20471;-72
2023/08/26 00:29:24;;;;;;;8.32;6.57;;;;;;;18.14;92.90;100580.44;4940349;28;20042;-72
2023/08/26 00:31:49;;;;;;;9.38;6.85;;;;;;;18.10;93.23;100582.25;4938287;28;20034;-71
2023/08/26 00:34:15;;;;;;;8.73;6.82;;;;;;;18.05;92.79;100577.78;4956661;28;20615;-71
2023/08/26 00:36:40;;;;;;;12.82;6.82;;;;;;;17.99;92.96;100585.28;4923085;28;20050;-72
2023/08/26 00:39:06;;;;;;;8.02;7.00;;;;;;;17.94;93.18;100573.81;4941082;28;20812;-74
2023/08/26 00:41:31;;;;;;;8.55;5.88;;;;;;;17.91;93.11;100582.59;4940791;28;20038;-72
2023/08/26 00:43:57;;;;;;;6.80;5.53;;;;;;;17.89;93.33;100584.84;4942196;28;20494;-73
2023/08/26 00:46:23;;;;;;;10.15;6.72;;;;;;;17.85;93.22;100579.25;4974171;28;20046;-70
2023/08/26 00:48:49;;;;;;;9.10;6.40;;;;;;;17.82;93.08;100573.72;4957373;28;20098;-71
2023/08/26 00:51:19;;;;;;;6.55;5.82;;;;;;;17.78;92.95;100578.16;4960435;28;20062;-73
2023/08/26 00:53:48;;;;;;;7.38;6.32;;;;;;;17.73;93.27;100577.22;4955335;28;20037;-73
2023/08/26 00:56:14;;;;;;;7.35;5.95;;;;;;;17.70;93.14;100580.53;4933254;28;20047;-72
2023/08/26 00:58:40;;;;;;;9.40;7.80;;;;;;;17.69;93.34;100581.66;4939085;28;20035;-72
2023/08/26 01:01:06;;;;;;;7.15;5.75;;;;;;;17.66;93.45;100582.28;4943715;28;20042;-72
2023/08/26 01:03:33;;;;;;;10.65;7.50;;;;;;;17.66;93.32;100576.06;4947823;28;20766;-71
2023/08/26 01:05:59;;;;;;;12.13;9.98;;;;;;;17.61;93.47;100579.75;4941071;28;20598;-71
2023/08/26 01:08:25;;;;;;;12.32;10.27;;;;;;;17.59;93.92;100581.97;4965290;28;20047;-72
2023/08/26 01:11:23;;;;;;;12.70;9.63;;;;;;;17.55;94.03;100581.03;4971235;28;20031;-71
2023/08/26 01:14:01;;;;;;;8.25;7.25;;;;;;;17.55;93.82;100586.47;4966388;28;20063;-72
2023/08/26 01:16:30;;;;;;;10.75;8.57;;;;;;;17.57;93.89;100592.34;4941390;28;20041;-73
2023/08/26 01:18:56;;;;;;;13.95;8.43;;;;;;;17.59;94.49;100584.69;4939139;28;20572;-71
2023/08/26 01:21:31;;;;;;;11.05;8.63;;;;;;;17.60;94.67;100588.97;4952119;28;21001;-72
2023/08/26 01:23:56;;;;;;;9.77;7.07;;;;;;;17.62;94.86;100597.59;4921612;28;20066;-73
2023/08/26 01:26:22;;;;;;;12.32;9.02;;;;;;;17.67;95.23;100586.59;4958436;28;20137;-72
2023/08/26 01:28:48;;;;;;;13.77;10.00;;;;;;;17.69;95.59;100586.28;4949665;28;20046;-72
2023/08/26 01:31:16;;;;;;;15.48;11.60;;;;;;;17.68;95.70;100580.06;4956235;28;20039;-72
2023/08/26 01:34:20;;;;;;;12.40;10.13;;;;;;;17.70;95.58;100582.44;4954770;28;20043;-72
2023/08/26 01:36:47;;;;;;;12.30;10.70;;;;;;;17.69;96.08;100581.66;4965139;28;20058;-72
2023/08/26 01:39:16;;;;;;;12.10;9.73;;;;;;;17.70;96.08;100585.97;4940258;28;20117;-71
2023/08/26 01:41:48;;;;;;;12.68;10.13;;;;;;;17.74;96.10;100580.72;4948973;28;20030;-72
2023/08/26 01:44:15;;;;;;;11.50;9.40;;;;;;;17.73;96.49;100571.78;4955555;28;20041;-71
2023/08/26 01:46:41;;;;;;;15.75;10.70;;;;;;;17.75;96.63;100579.63;4940034;28;20612;-72
2023/08/26 01:49:06;;;;;;;11.50;9.32;;;;;;;17.76;96.88;100570.38;4957204;28;20039;-72
2023/08/26 01:51:33;;;;;;;13.48;8.93;;;;;;;17.77;96.85;100566.53;4944531;28;20045;-73
2023/08/26 01:53:59;;;;;;;14.77;10.15;;;;;;;17.79;96.72;100563.50;4943021;28;20344;-72
2023/08/26 01:56:25;;;;;;;9.40;8.40;;;;;;;17.79;96.51;100567.00;4939545;28;20888;-73
2023/08/26 01:58:51;;;;;;;12.95;9.70;;;;;;;17.80;96.48;100565.09;4938329;28;20039;-72
2023/08/26 02:01:18;;;;;;;10.98;9.85;;;;;;;17.79;96.70;100568.91;4947915;28;20049;-75
2023/08/26 02:03:43;;;;;;;13.57;10.20;;;;;;;17.78;96.46;100570.84;4946778;28;20051;-71
2023/08/26 02:06:10;;;;;;;10.68;9.20;;;;;;;17.77;95.99;100560.31;4951585;28;20031;-74
2023/08/26 02:08:35;;;;;;;12.50;9.38;;;;;;;17.72;95.51;100559.38;4941953;28;20129;-71
2023/08/26 02:11:01;;;;;;;10.45;8.50;;;;;;;17.71;95.47;100557.78;4929092;28;20039;-71
2023/08/26 02:13:27;;;;;;;11.68;9.77;;;;;;;17.68;95.73;100566.53;4938015;28;20034;-72
2023/08/26 02:15:54;;;;;;;10.70;9.60;;;;;;;17.66;95.56;100566.03;4957454;28;20045;-72
2023/08/26 02:18:21;;;;;;;12.85;9.93;;;;;;;17.63;95.53;100568.59;4957090;28;20829;-71
2023/08/26 02:20:48;;;;;;;14.77;11.02;;;;;;;17.63;95.93;100561.28;4941119;28;20056;-73
2023/08/26 02:23:15;;;;;;;14.05;10.68;;;;;;;17.63;96.23;100563.19;4942032;28;20053;-73
2023/08/26 02:25:41;;;;;;;16.30;13.52;;;;;;;17.63;96.66;100565.91;4957260;28;20129;-71
2023/08/26 02:28:07;;;;;;;17.10;12.60;;;;;;;17.60;96.87;100570.03;4960286;28;20053;-72
2023/08/26 02:30:34;;;;;;;18.88;13.73;;;;;;;17.61;97.15;100562.69;4960660;28;20043;-71
2023/08/26 02:33:00;;;;;;;11.15;9.75;;;;;;;17.59;96.72;100557.59;4944717;28;20047;-72
2023/08/26 02:35:26;;;;;;;14.40;11.55;;;;;;;17.55;96.05;100575.63;4975235;28;20030;-71
2023/08/26 02:37:52;;;;;;;14.90;10.40;;;;;;;17.54;95.66;100582.13;4956152;28;20102;-73
2023/08/26 02:40:18;;;;;;;15.10;11.52;;;;;;;17.54;95.71;100574.00;4956889;28;20046;-72
2023/08/26 02:42:44;;;;;;;15.15;11.93;;;;;;;17.56;96.54;100579.91;4975835;28;20063;-73
2023/08/26 02:45:10;;;;;;;14.50;11.30;;;;;;;17.55;96.50;100564.00;4942096;28;20118;-71
2023/08/26 02:47:35;;;;;;;16.58;13.30;;;;;;;17.54;96.49;100556.97;4955689;28;20517;-71
2023/08/26 02:50:02;;;;;;;13.15;11.45;;;;;;;17.50;96.34;100566.88;4941822;28;20093;-71
2023/08/26 02:52:28;;;;;;;15.38;11.18;;;;;;;17.47;96.25;100555.53;4961578;28;20050;-72
2023/08/26 02:54:54;;;;;;;14.35;11.60;;;;;;;17.45;96.12;100562.41;4936553;28;20034;-72
2023/08/26 02:57:21;;;;;;;13.65;10.65;;;;;;;17.42;95.87;100560.34;4946667;28;20531;-71
2023/08/26 02:59:49;;;;;;;18.35;13.63;;;;;;;17.39;95.82;100560.97;4940623;28;20051;-73
2023/08/26 03:02:24;;;;;;;14.73;11.65;;;;;;;17.36;95.83;100562.41;4957442;28;20039;-73
2023/08/26 03:04:51;;;;;;;14.98;12.73;;;;;;;17.34;95.81;100553.81;4969584;28;20031;-74
2023/08/26 03:07:16;;;;;;;17.00;11.88;;;;;;;17.33;95.92;100559.53;4953865;28;20039;-73
2023/08/26 03:09:42;;;;;;;14.10;11.52;;;;;;;17.30;95.71;100562.91;4945958;28;20042;-71
2023/08/26 03:12:07;;;;;;;17.17;14.35;;;;;;;17.29;95.70;100558.59;4944439;28;20113;-73
2023/08/26 03:14:33;;;;;;;20.92;14.35;;;;;;;17.27;95.65;100552.69;4951010;28;20035;-75
2023/08/26 03:16:59;;;;;;;18.67;13.68;;;;;;;17.25;95.80;100565.75;4939942;28;20294;-73
2023/08/26 03:19:25;;;;;;;16.38;12.85;;;;;;;17.23;95.72;100568.00;4953231;28;20046;-70
2023/08/26 03:21:51;;;;;;;19.58;15.32;;;;;;;17.22;95.77;100561.00;4944929;28;20039;-72
2023/08/26 03:24:16;;;;;;;19.08;15.25;;;;;;;17.23;96.25;100559.88;4927123;28;20179;-71
2023/08/26 03:26:43;;;;;;;20.00;15.57;;;;;;;17.19;96.18;100563.19;4971537;28;20049;-71
2023/08/26 03:29:10;;;;;;;23.23;16.05;;;;;;;17.21;96.57;100564.81;4946045;28;20520;-72
2023/08/26 03:31:36;;;;;;;21.83;16.38;;;;;;;17.19;96.45;100568.59;4957770;28;20034;-72
2023/08/26 03:34:02;;;;;;;18.92;13.35;;;;;;;17.22;96.71;100571.81;4977640;28;20050;-73
2023/08/26 03:36:28;;;;;;;23.58;15.05;;;;;;;17.19;97.22;100567.81;4936161;28;20039;-71
2023/08/26 03:38:55;;;;;;;24.50;16.02;;;;;;;17.16;97.12;100557.66;4958665;28;20417;-71
2023/08/26 03:41:22;;;;;;;23.75;15.18;;;;;;;17.15;96.83;100573.09;4958030;28;20043;-72
2023/08/26 03:43:47;;;;;;;25.60;16.98;;;;;;;17.14;96.95;100566.09;4940427;28;20038;-74
2023/08/26 03:46:13;;;;;;;28.92;19.83;;;;;;;17.12;97.17;100562.88;4921110;28;20443;-70
2023/08/26 03:48:38;;;;;;;25.58;17.05;;;;;;;17.11;97.11;100561.28;4931389;28;20094;-74
2023/08/26 03:51:05;;;;;;;25.55;17.63;;;;;;;17.09;96.88;100555.41;4960773;28;20038;-72
2023/08/26 03:53:32;;;;;;;24.00;14.25;;;;;;;17.06;96.63;100547.91;4946151;28;20035;-72
2023/08/26 03:55:58;;;;;;;24.77;17.02;;;;;;;17.03;96.49;100556.69;4954672;28;20309;-71
2023/08/26 03:58:24;;;;;;;25.15;17.00;;;;;;;17.01;96.33;100561.63;4959896;28;20764;-72
2023/08/26 04:00:50;;;;;;;28.42;19.27;;;;;;;16.96;96.46;100564.47;4927617;28;20491;-72
2023/08/26 04:03:16;;;;;;;35.58;20.15;;;;;;;16.95;97.12;100573.69;4962249;28;20685;-72
2023/08/26 04:05:43;;;;;;;29.80;19.98;;;;;;;16.95;96.95;100568.28;4938537;28;20067;-70
2023/08/26 04:08:09;;;;;;;29.35;18.45;;;;;;;16.95;97.58;100568.28;4972347;28;20063;-71
2023/08/26 04:10:35;;;;;;;31.52;20.73;;;;;;;16.96;98.29;100569.09;4948494;28;20035;-71
2023/08/26 04:13:19;;;;;;;34.38;19.45;;;;;;;16.98;98.71;100567.63;4943082;28;20045;-73
2023/08/26 04:15:45;;;;;;;30.75;17.95;;;;;;;16.96;98.50;100569.88;4934034;28;20453;-72
2023/08/26 04:18:10;;;;;;;29.90;19.67;;;;;;;17.02;98.84;100574.03;4939510;28;20935;-71
2023/08/26 04:20:36;;;;;;;36.00;19.38;;;;;;;17.03;99.09;100570.19;4942530;28;20073;-72
2023/08/26 04:23:02;;;;;;;39.05;21.73;;;;;;;17.07;99.63;100582.00;4971718;28;20113;-73
2023/08/26 04:25:28;;;;;;;33.60;19.13;;;;;;;17.10;99.85;100578.66;4973091;28;20030;-71
2023/08/26 04:27:55;;;;;;;36.30;22.15;;;;;;;17.14;99.87;100578.81;4939015;28;20042;-71
2023/08/26 04:30:21;;;;;;;34.60;19.08;;;;;;;17.18;99.87;100583.25;4976909;28;20113;-74
2023/08/26 04:32:47;;;;;;;34.38;20.52;;;;;;;17.21;100.00;100576.44;4943485;28;20169;-71
2023/08/26 04:35:13;;;;;;;34.10;19.05;;;;;;;17.24;100.00;100585.81;4926577;28;20520;-73
2023/08/26 04:37:39;;;;;;;30.52;18.88;;;;;;;17.28;100.00;100589.50;4959667;28;20795;-73
2023/08/26 04:40:12;;;;;;;34.88;21.10;;;;;;;17.30;100.00;100584.53;4944150;28;20041;-72
2023/08/26 04:42:41;;;;;;;32.63;18.35;;;;;;;17.33;100.00;100589.31;4946699;28;20054;-71
2023/08/26 04:45:09;;;;;;;37.63;20.48;;;;;;;17.37;100.00;100590.28;4929036;28;20073;-73
2023/08/26 04:47:36;;;;;;;32.50;18.20;;;;;;;17.40;100.00;100589.63;4946438;28;20880;-73
2023/08/26 04:50:04;;;;;;;29.60;17.00;;;;;;;17.44;100.00;100593.31;4959415;28;20074;-72
2023/08/26 04:52:29;;;;;;;30.33;17.17;;;;;;;17.46;100.00;100588.34;4927725;28;20035;-72
2023/08/26 04:54:56;;;;;;;32.63;18.52;;;;;;;17.49;100.00;100587.72;4938754;28;20039;-73
2023/08/26 04:57:23;;;;;;;34.50;16.55;;;;;;;17.54;100.00;100589.47;4927342;28;20039;-74
2023/08/26 04:59:48;;;;;;;35.53;18.90;;;;;;;17.56;100.00;100581.84;4944505;28;20046;-75
2023/08/26 05:02:14;;;;;;;32.95;18.48;;;;;;;17.61;100.00;100589.78;4929881;28;20496;-72
2023/08/26 05:04:40;;;;;;;33.58;18.13;;;;;;;17.64;100.00;100589.94;4929314;28;21001;-71
2023/08/26 05:07:05;;;;;;;36.75;20.17;;;;;;;17.65;100.00;100580.69;4958905;28;20045;-72
2023/08/26 05:09:31;;;;;;;37.65;20.00;;;;;;;17.67;100.00;100594.69;4974686;28;20685;-71
2023/08/26 05:11:57;;;;;;;41.00;21.80;;;;;;;17.71;100.00;100592.19;4956665;28;20034;-74
2023/08/26 05:14:24;;;;;;;35.70;19.42;;;;;;;17.77;100.00;100598.25;4960413;28;20058;-71
2023/08/26 05:16:50;;;;;;;37.97;20.63;;;;;;;17.81;100.00;100610.00;4943666;28;20045;-71
2023/08/26 05:19:16;;;;;;;39.08;22.10;;;;;;;17.85;100.00;100605.56;4943162;28;20038;-72
2023/08/26 05:21:43;;;;;;;46.60;24.85;;;;;;;17.86;100.00;100605.22;4962903;28;20054;-71
2023/08/26 05:24:10;;;;;;;42.55;22.45;;;;;;;17.87;100.00;100603.31;4949893;28;20065;-75
2023/08/26 05:26:37;;;;;;;47.50;24.40;;;;;;;17.90;100.00;100602.69;4946765;28;20094;-74
2023/08/26 05:29:04;;;;;;;40.22;23.77;;;;;;;17.92;100.00;100617.50;4948713;28;20046;-72
2023/08/26 05:31:31;;;;;;;43.20;25.13;;;;;;;17.93;100.00;100608.25;4944769;28;20042;-74
2023/08/26 05:33:57;;;;;;;42.25;24.38;;;;;;;17.97;99.93;100611.13;4966218;28;20039;-72
2023/08/26 05:36:23;;;;;;;39.47;21.30;;;;;;;18.00;100.00;100605.84;4961922;28;20390;-73
2023/08/26 05:38:49;;;;;;;48.92;25.30;;;;;;;18.00;100.00;100608.53;4946272;28;20062;-73
2023/08/26 05:41:14;;;;;;;42.42;22.45;;;;;;;18.07;100.00;100618.88;4946878;28;20035;-73
2023/08/26 05:43:42;;;;;;;37.38;20.60;;;;;;;18.11;100.00;100625.28;4963245;28;20622;-73
2023/08/26 05:46:10;;;;;;;45.53;23.55;;;;;;;18.15;100.00;100625.41;4964037;28;20515;-73
2023/08/26 05:48:35;;;;;;;36.83;22.88;;;;;;;18.22;99.34;100629.22;4979525;28;20047;-73
2023/08/26 05:51:02;;;;;;;40.88;22.65;;;;;;;18.27;99.33;100634.47;4942093;28;20046;-73
2023/08/26 05:53:29;;;;;;;36.65;21.75;;;;;;;18.30;98.82;100633.03;4962203;28;20672;-74
2023/08/26 05:55:55;;;;;;;38.00;22.80;;;;;;;18.32;98.30;100625.38;4961838;28;20113;-76
2023/08/26 05:58:21;;;;;;;36.70;21.30;;;;;;;18.37;97.34;100643.38;4945570;28;20085;-72
2023/08/26 06:00:47;;;;;;;38.20;22.83;;;;;;;18.40;97.95;100638.09;4963530;28;20069;-73
2023/08/26 06:03:13;;;;;;;34.15;21.98;;;;;;;18.41;97.19;100649.72;4935623;28;20034;-72
2023/08/26 06:05:40;;;;;;;31.40;20.48;;;;;;;18.42;96.37;100648.59;4945345;28;20049;-72
2023/08/26 06:08:06;;;;;;;33.28;20.15;;;;;;;18.44;96.46;100655.31;4946533;28;20039;-72
2023/08/26 06:10:32;;;;;;;32.20;19.10;;;;;;;18.45;96.46;100650.69;4966529;28;20045;-74
2023/08/26 06:12:59;;;;;;;30.90;19.08;;;;;;;18.46;96.82;100646.84;4946916;28;20094;-71
2023/08/26 06:15:28;;;;;;;31.20;19.48;;;;;;;18.48;96.38;100652.72;4947060;28;20035;-75
2023/08/26 06:17:54;;;;;;;31.48;20.13;;;;;;;18.58;95.95;100655.09;4946135;28;20031;-73
2023/08/26 06:20:24;;;;;;;30.08;19.60;;;;;;;18.67;96.10;100658.59;4961467;28;20038;-73
2023/08/26 06:22:49;;;;;;;25.30;15.88;;;;;;;18.74;95.71;100669.72;4962016;28;20117;-73
2023/08/26 06:25:15;;;;;;;26.00;16.70;;;;;;;18.76;95.29;100672.94;4941849;28;20113;-73
2023/08/26 06:27:41;;;;;;;22.67;14.93;;;;;;;18.75;94.78;100676.75;4947142;28;20030;-74
2023/08/26 06:30:08;;;;;;;22.50;15.70;;;;;;;18.76;93.80;100680.25;4976367;28;20038;-73
2023/08/26 06:32:35;;;;;;;22.80;14.80;;;;;;;18.73;93.58;100684.41;4964306;28;20039;-71
2023/08/26 06:35:02;;;;;;;25.35;15.75;;;;;;;18.69;93.15;100680.75;4933793;28;20121;-74
2023/08/26 06:37:27;;;;;;;18.10;12.43;;;;;;;18.63;92.94;100690.19;4978232;28;20548;-75
2023/08/26 06:39:53;;;;;;;17.38;12.48;;;;;;;18.61;92.12;100686.97;4956018;28;20038;-74
2023/08/26 06:42:19;;;;;;;14.98;11.55;;;;;;;18.55;91.24;100689.06;4947352;28;20055;-72
2023/08/26 06:44:54;;;;;;;19.35;12.32;;;;;;;18.54;92.35;100689.41;4948361;28;20109;-73
2023/08/26 06:47:20;;;;;;;14.95;10.23;;;;;;;18.57;92.28;100696.91;4944538;28;20047;-73
2023/08/26 06:49:45;;;;;;;14.30;9.63;;;;;;;18.63;91.88;100701.03;4930506;28;20042;-72
2023/08/26 06:52:11;;;;;;;13.48;10.10;;;;;;;18.68;91.13;100702.78;4943309;28;20039;-71
2023/08/26 06:54:38;;;;;;;13.68;9.35;;;;;;;18.72;90.27;100715.38;4961061;28;20088;-72
2023/08/26 06:57:03;;;;;;;14.35;10.15;;;;;;;18.73;91.35;100713.47;4959100;28;20042;-71
2023/08/26 06:59:30;;;;;;;13.68;8.70;;;;;;;18.74;91.10;100724.00;4942286;28;20092;-72
2023/08/26 07:01:55;;;;;;;12.10;8.98;;;;;;;18.68;88.90;100727.19;4940656;28;20074;-74
2023/08/26 07:04:20;;;;;;;12.73;9.25;;;;;;;18.65;89.69;100734.06;4948596;28;20047;-71
2023/08/26 07:06:46;;;;;;;13.45;8.10;;;;;;;18.68;90.80;100730.72;4963216;28;20044;-74
2023/08/26 07:09:12;;;;;;;12.80;8.20;;;;;;;18.75;90.16;100731.00;4959459;28;20066;-74
2023/08/26 07:11:37;;;;;;;13.13;7.85;;;;;;;18.79;91.06;100721.09;4945645;28;20038;-73
2023/08/26 07:14:03;;;;;;;11.95;7.05;;;;;;;18.93;90.45;100720.09;4961089;28;20081;-72
2023/08/26 07:16:29;;;;;;;9.10;7.18;;;;;;;19.00;89.33;100720.38;4956083;28;20077;-73
2023/08/26 07:18:55;;;;;;;9.95;6.68;;;;;;;19.05;86.61;100709.34;4959305;28;20081;-71
2023/08/26 07:21:21;;;;;;;8.80;5.85;;;;;;;19.08;87.96;100712.19;4962789;28;20460;-74
2023/08/26 07:23:47;;;;;;;9.15;4.97;;;;;;;19.12;85.51;100722.41;4945534;28;20023;-73
2023/08/26 07:26:12;;;;;;;7.88;5.05;;;;;;;19.12;83.74;100712.34;4946412;28;20039;-76
2023/08/26 07:28:38;;;;;;;8.45;5.25;;;;;;;19.17;82.94;100720.31;4957115;28;20066;-71
2023/08/26 07:31:05;;;;;;;7.22;5.45;;;;;;;19.11;83.75;100727.03;4942629;28;20116;-71
2023/08/26 07:33:31;;;;;;;7.28;4.97;;;;;;;19.11;82.86;100726.25;4961151;28;20681;-70
2023/08/26 07:36:03;;;;;;;6.97;4.72;;;;;;;19.10;83.03;100730.84;4962653;28;20050;-73
2023/08/26 07:38:30;;;;;;;7.38;5.10;;;;;;;19.11;82.44;100729.75;4941159;28;20615;-72
2023/08/26 07:40:55;;;;;;;7.00;5.07;;;;;;;19.14;82.87;100734.53;4945834;28;20122;-70
2023/08/26 07:43:21;;;;;;;8.00;4.70;;;;;;;19.22;83.06;100741.03;4948416;28;20157;-73
2023/08/26 07:45:46;;;;;;;8.38;4.57;;;;;;;19.24;83.01;100741.50;4963984;28;20552;-71
2023/08/26 07:48:12;;;;;;;6.50;4.20;;;;;;;19.27;84.68;100746.28;4974094;28;20027;-75
2023/08/26 07:50:38;;;;;;;8.85;5.57;;;;;;;19.19;81.58;100747.91;4943035;28;20106;-71
2023/08/26 07:53:05;;;;;;;7.10;4.78;;;;;;;19.20;83.92;100737.84;4961033;28;20031;-71
2023/08/26 07:55:31;;;;;;;7.85;5.18;;;;;;;19.29;83.40;100749.44;4955881;28;20034;-72
2023/08/26 07:57:57;;;;;;;7.60;5.45;;;;;;;19.30;80.94;100745.59;4955246;28;20034;-75
2023/08/26 08:00:23;;;;;;;7.45;5.00;;;;;;;19.38;81.49;100758.34;4961901;28;20399;-71
2023/08/26 08:02:49;;;;;;;7.05;4.88;;;;;;;19.44;81.93;100750.78;4948037;28;20049;-73
2023/08/26 08:05:15;;;;;;;7.13;4.88;;;;;;;19.47;81.97;100755.59;4963054;28;20034;-72
2023/08/26 08:07:42;;;;;;;6.50;4.45;;;;;;;19.42;80.27;100763.91;4957449;28;20042;-71
2023/08/26 08:10:08;;;;;;;6.72;5.10;;;;;;;19.34;77.40;100763.63;4943912;28;20796;-71
2023/08/26 08:12:35;;;;;;;6.75;4.38;;;;;;;19.39;79.61;100765.38;4958185;28;20190;-71
2023/08/26 08:15:01;;;;;;;6.05;4.70;;;;;;;19.41;81.39;100762.31;4962265;28;20416;-70
2023/08/26 08:17:27;;;;;;;6.63;4.05;;;;;;;19.33;81.87;100756.63;4946190;28;20464;-71
2023/08/26 08:19:52;;;;;;;9.18;4.60;;;;;;;19.23;80.75;100765.13;4953075;28;20039;-73
2023/08/26 08:22:33;;;;;;;7.88;4.45;;;;;;;19.13;78.01;100764.72;4941105;28;20085;-73
2023/08/26 08:25:00;;;;;;;7.07;3.92;;;;;;;19.13;79.25;100776.38;4944197;28;20138;-71
2023/08/26 08:27:25;;;;;;;5.88;3.40;;;;;;;19.02;79.76;100778.63;4959680;28;20129;-70
2023/08/26 08:29:51;;;;;;;5.05;3.35;;;;;;;19.01;80.73;100777.03;4959069;28;20400;-72
2023/08/26 08:32:17;;;;;;;5.80;3.78;;;;;;;18.92;77.07;100775.50;4961936;28;20065;-70
2023/08/26 08:34:42;;;;;;;4.40;3.20;;;;;;;18.91;77.95;100779.31;4943438;28;20038;-72
2023/08/26 08:37:08;;;;;;;5.20;3.42;;;;;;;18.89;78.06;100771.50;4942867;28;20047;-72
2023/08/26 08:39:36;;;;;;;6.55;3.10;;;;;;;18.93;81.28;100779.78;4959831;28;20034;-73
2023/08/26 08:42:03;;;;;;;5.03;3.03;;;;;;;18.91;81.95;100776.63;4942763;28;20046;-73
2023/08/26 08:44:34;;;;;;;5.40;3.10;;;;;;;18.80;79.78;100782.38;4927945;28;20038;-73
2023/08/26 08:47:04;;;;;;;7.15;3.20;;;;;;;18.81;79.63;100783.97;4959818;28;20492;-72
2023/08/26 08:49:31;;;;;;;4.70;2.53;;;;;;;18.76;80.31;100794.19;4972600;28;20058;-73
2023/08/26 08:51:58;;;;;;;4.82;3.00;;;;;;;18.67;81.01;100794.22;4959124;28;20122;-71
2023/08/26 08:54:26;;;;;;;4.57;3.00;;;;;;;18.55;78.86;100802.19;4961708;28;20027;-73
2023/08/26 08:56:53;;;;;;;4.90;2.75;;;;;;;18.46;79.63;100804.91;4959578;28;20058;-72
2023/08/26 08:59:19;;;;;;;4.25;3.15;;;;;;;18.44;79.67;100811.78;4942798;28;20037;-73
2023/08/26 09:01:47;;;;;;;4.68;2.55;;;;;;;18.35;80.47;100808.25;4948132;28;20406;-71
2023/08/26 09:04:13;;;;;;;5.55;3.67;;;;;;;18.36;81.38;100813.38;4961131;28;20054;-71
2023/08/26 09:06:39;;;;;;;4.78;2.80;;;;;;;18.28;83.27;100820.38;4961869;28;20094;-71
2023/08/26 09:09:15;;;;;;;7.55;3.10;;;;;;;18.28;84.43;100825.81;4956849;28;20039;-72
2023/08/26 09:11:41;;;;;;;4.07;3.28;;;;;;;18.24;85.11;100826.78;4928391;28;20047;-71
2023/08/26 09:14:06;;;;;;;5.47;3.15;;;;;;;18.23;85.96;100823.28;4960642;28;20050;-72
2023/08/26 09:16:42;;;;;;;5.15;2.60;;;;;;;18.24;86.07;100824.06;4945432;28;20504;-72
2023/08/26 09:19:09;;;;;;;4.53;3.45;;;;;;;18.14;86.88;100818.94;4957517;28;20047;-72
2023/08/26 09:21:46;;;;;;;10.27;3.40;;;;;;;18.10;87.80;100824.22;4958043;28;20066;-73
2023/08/26 09:24:13;;;;;;;7.45;3.78;;;;;;;18.07;87.92;100818.63;4937695;28;20070;-74
2023/08/26 09:26:39;;;;;;;5.80;3.30;;;;;;;18.01;86.10;100821.47;4946057;28;20424;-73
2023/08/26 09:29:16;;;;;;;7.57;3.70;;;;;;;18.10;87.37;100828.84;4940314;28;20062;-72
2023/08/26 09:31:49;;;;;;;4.72;3.30;;;;;;;18.13;87.89;100829.00;4958574;28;20031;-72
2023/08/26 09:34:32;;;;;;;7.55;3.80;;;;;;;18.14;88.24;100833.28;4935928;28;20043;-74
2023/08/26 09:36:59;;;;;;;5.90;3.05;;;;;;;18.16;88.36;100833.78;4932290;28;20134;-72
2023/08/26 09:39:27;;;;;;;4.78;2.95;;;;;;;18.25;88.43;100831.09;4953568;28;20489;-73
2023/08/26 09:41:57;;;;;;;7.50;3.67;;;;;;;18.26;87.42;100829.97;4933967;28;20512;-71
2023/08/26 09:44:23;;;;;;;3.78;3.28;;;;;;;18.37;87.53;100822.31;4956771;28;20584;-73
2023/08/26 09:46:49;;;;;;;7.15;2.50;;;;;;;18.44;85.77;100833.47;4954299;28;20212;-71
2023/08/26 09:49:17;;;;;;;4.78;2.90;;;;;;;18.49;86.83;100830.59;4941921;28;20035;-73
2023/08/26 09:51:51;;;;;;;3.38;2.35;;;;;;;18.53;86.48;100832.34;4958147;28;20089;-75
2023/08/26 09:54:19;;;;;;;3.83;2.55;;;;;;;18.57;86.36;100837.94;4958182;28;20476;-71
2023/08/26 09:56:46;;;;;;;5.38;2.45;;;;;;;18.60;84.69;100845.41;4945733;28;20043;-74
2023/08/26 09:59:13;;;;;;;4.65;3.15;;;;;;;18.60;82.49;100840.00;4959860;28;20039;-73
2023/08/26 10:01:40;;;;;;;3.83;2.20;;;;;;;18.67;86.25;100839.53;4959165;28;20437;-71
2023/08/26 10:04:10;;;;;;;3.22;2.13;;;;;;;18.66;84.19;100843.34;4956832;28;20043;-72
2023/08/26 10:06:40;;;;;;;3.28;1.80;;;;;;;18.65;84.55;100847.19;4962320;28;20517;-73
2023/08/26 10:09:25;;;;;;;3.22;2.00;;;;;;;18.67;84.27;100856.59;4960204;28;20117;-74
2023/08/26 10:11:55;;;;;;;3.50;1.92;;;;;;;18.67;80.60;100862.03;4979201;28;20503;-76
2023/08/26 10:14:24;;;;;;;2.78;1.90;;;;;;;18.73;78.29;100858.03;4961743;28;20608;-71
2023/08/26 10:16:52;;;;;;;4.15;2.10;;;;;;;18.81;82.60;100851.78;4947214;28;20035;-75
2023/08/26 10:19:20;;;;;;;3.85;2.13;;;;;;;18.78;79.63;100860.59;4959714;28;20034;-74
2023/08/26 10:21:46;;;;;;;2.55;1.73;;;;;;;18.86;80.72;100867.13;4961165;28;20027;-72
2023/08/26 10:24:13;;;;;;;3.88;1.90;;;;;;;18.89;78.91;100871.88;4976144;28;20511;-73
2023/08/26 10:26:39;;;;;;;3.65;2.08;;;;;;;18.95;80.85;100875.22;4942772;28;20097;-71
2023/08/26 10:29:05;;;;;;;3.60;1.90;;;;;;;18.97;81.29;100873.00;4961507;28;20046;-73
2023/08/26 10:31:36;;;;;;;5.13;2.00;;;;;;;18.98;81.33;100877.31;4956572;28;20030;-72
2023/08/26 10:34:02;;;;;;;4.05;1.90;;;;;;;18.97;81.25;100878.44;4977145;28;20508;-71
2023/08/26 10:36:28;;;;;;;3.13;1.80;;;;;;;18.99;81.61;100887.06;4961531;28;20110;-74
2023/08/26 10:38:58;;;;;;;3.58;1.77;;;;;;;18.94;76.17;100879.06;4959129;28;20133;-73
2023/08/26 10:41:25;;;;;;;4.65;2.08;;;;;;;18.95;80.96;100891.53;4945917;28;20038;-72
2023/08/26 10:43:58;;;;;;;4.65;1.85;;;;;;;18.96;81.88;100887.69;4977374;28;20054;-73
2023/08/26 10:46:52;;;;;;;2.88;1.90;;;;;;;18.90;81.50;100894.38;4959742;28;20035;-71
2023/08/26 10:49:22;;;;;;;5.70;2.45;;;;;;;18.82;83.06;100896.81;4950812;28;20031;-72
2023/08/26 10:51:47;;;;;;;3.60;1.70;;;;;;;18.77;83.17;100896.19;4943351;28;20098;-70
2023/08/26 10:54:13;;;;;;;5.18;2.10;;;;;;;18.74;82.88;100896.81;4948971;28;20031;-73
2023/08/26 10:56:41;;;;;;;4.57;2.00;;;;;;;18.73;80.63;100893.31;4960132;28;20167;-71
2023/08/26 10:59:07;;;;;;;3.95;1.60;;;;;;;18.77;82.62;100894.28;4966263;28;20034;-72
2023/08/26 11:01:38;;;;;;;4.35;1.60;;;;;;;18.80;81.95;100881.97;4963131;28;20031;-71
2023/08/26 11:04:05;;;;;;;2.88;1.70;;;;;;;18.78;80.03;100890.44;4934805;28;20042;-72
2023/08/26 11:06:38;;;;;;;3.63;1.90;;;;;;;18.91;79.94;100883.25;4941725;28;20085;-72
2023/08/26 11:09:04;;;;;;;5.28;1.70;;;;;;;19.07;76.39;100872.66;4962385;28;20038;-72
2023/08/26 11:11:31;;;;;;;6.72;1.80;;;;;;;19.19;77.95;100883.66;4961584;28;20043;-74
2023/08/26 11:13:57;;;;;;;4.90;1.60;;;;;;;19.11;71.90;100879.03;4947674;28;20029;-71
2023/08/26 11:16:23;;;;;;;3.63;2.50;;;;;;;19.13;70.35;100884.16;4943456;28;20038;-72